A- A+ FrançaisEnglishEspañol中国

最近的 SECU CuencaLFRN Rennes-St-Jacques LFBI Poitiers-Biard MHLC La CeibaLFKF Figari Sud CorseLEVT Vitoria

飞行员的航空天气,使用METAR(气象机场报告)进行的飞行准备和TAF(终端机场预报:针对以下情况的短期天气预报)航空)。 以及其他资源,例如VAC(目视进近图)和NOTAM(通知飞行员)以进行预试飞行.

METAR, TAF, VAC, NOTAM Kanab Mun机场 (美国) / OACI KKNB

它位于附近 Kanab, Kanab 在 4.1 km, Fredonia 在 7.3 km, Hildale 在 39 km, Colorado City 在 40 km, Shunesburg 在 43 km, LaVerkin 在 69 km, Hurricane 在 70 km, Toquerville 在 72 km, Bryce Canyon City 在 81 km, Washington 在 88 km,

机场的高度为 Kanab Mun机场的

1484 m = 4869 ft

跑道 Kanab Mun机场的

附近的机场Kanab Mun机场的

目前的天气 Kanab Mun机场的 - KKNB

ciel dégagé
37°C

Vent 0 km/h

可提供5天天气预报 Kanab 在 4.1 km, Fredonia 在 7.3 km, Hildale 在 39 km, Colorado City 在 40 km, Shunesburg 在 43 km, LaVerkin 在 69 km, Hurricane 在 70 km, Toquerville 在 72 km, Bryce Canyon City 在 81 km, Washington 在 88 km,

METAR Kanab Mun机场的 - KKNB

KKNB 050010Z AUTO 00000KT 10SM CLR 37/M11 A3018 RMK A01

Kanab Mun机场METAR解码 (美国)

KKNB机场发行的METAR日期2020年09月05日至00:10 GMT. 这是一个自动生成的METAR, 警告:此METAR已过期, 已于 20 天 13 小时 19 分钟.

可见度为16.1 km = 10 sm.

温度为37°C = 99 °F 露点为-11°C = 12 °F 。 这相当于4%的相对湿度。.

QNH是1022 hPa = 30.18 inHg

的风0 kt = 0 km/h, 风向为0°.

天空晴朗

备注 A01

TAF Kanab Mun机场的 - KKNB

没有TAF

Kanab Mun机场的NOTAM

提供的NOTAM不能保证其时事性。 在将其用于飞行准备或在飞行期间使用之前,飞行员是唯一负责验证其有效性的人员。

没有通知

数据源